Terminal Aerodrome Forecast
Issued by NWS Cleveland, OH

Home | Current Version | Previous Version | Text Only | Print | Product List | Glossary Off
Versions: 1 2 3 4 5 6 7 8 9 10 11 12 13 14 15 16 17 18 19 20

498
FTUS41 KCLE 120520
TAFMFD
TAF
KMFD 120520Z 1206/1306 21005KT P6SM OVC040
     FM121100 22005KT P6SM SCT040 BKN100
     FM121500 24012KT P6SM SCT035 OVC100
     FM122100 26012G20KT 5SM -SHSN OVC025=

USA.gov is the U.S. government's official web portal to all federal, state and local government web resources and services.